sensor_id;sensor_type;location;lat;lon;timestamp;P1;durP1;ratioP1;P2;durP2;ratioP2
75071;SDS011;63651;55.728;38.022;2023-02-28T00:00:47;3.20;;;2.20;;
75071;SDS011;63651;55.728;38.022;2023-02-28T00:05:48;3.00;;;2.28;;
75071;SDS011;63651;55.728;38.022;2023-02-28T00:10:49;2.60;;;2.25;;
75071;SDS011;63651;55.728;38.022;2023-02-28T00:15:58;3.08;;;2.10;;
75071;SDS011;63651;55.728;38.022;2023-02-28T00:21:19;2.83;;;2.20;;
75071;SDS011;63651;55.728;38.022;2023-02-28T00:26:21;2.72;;;2.13;;
75071;SDS011;63651;55.728;38.022;2023-02-28T00:31:22;3.78;;;2.30;;
75071;SDS011;63651;55.728;38.022;2023-02-28T00:36:23;3.10;;;1.98;;
75071;SDS011;63651;55.728;38.022;2023-02-28T00:41:24;2.80;;;1.98;;
75071;SDS011;63651;55.728;38.022;2023-02-28T00:46:25;3.58;;;2.60;;
75071;SDS011;63651;55.728;38.022;2023-02-28T00:51:26;3.45;;;2.33;;
75071;SDS011;63651;55.728;38.022;2023-02-28T00:56:27;3.08;;;2.05;;
75071;SDS011;63651;55.728;38.022;2023-02-28T01:01:29;3.42;;;2.08;;
75071;SDS011;63651;55.728;38.022;2023-02-28T01:06:30;2.88;;;2.35;;
75071;SDS011;63651;55.728;38.022;2023-02-28T01:11:32;3.25;;;2.00;;
75071;SDS011;63651;55.728;38.022;2023-02-28T01:16:34;2.63;;;1.90;;
75071;SDS011;63651;55.728;38.022;2023-02-28T01:21:35;2.65;;;1.73;;
75071;SDS011;63651;55.728;38.022;2023-02-28T01:26:36;2.63;;;2.38;;
75071;SDS011;63651;55.728;38.022;2023-02-28T01:31:37;3.55;;;2.40;;
75071;SDS011;63651;55.728;38.022;2023-02-28T01:36:39;3.17;;;2.35;;
75071;SDS011;63651;55.728;38.022;2023-02-28T01:41:40;3.28;;;2.08;;
75071;SDS011;63651;55.728;38.022;2023-02-28T01:46:41;3.70;;;2.40;;
75071;SDS011;63651;55.728;38.022;2023-02-28T01:51:53;3.70;;;2.45;;
75071;SDS011;63651;55.728;38.022;2023-02-28T01:56:58;3.15;;;2.20;;
75071;SDS011;63651;55.728;38.022;2023-02-28T02:02:08;3.75;;;2.35;;
75071;SDS011;63651;55.728;38.022;2023-02-28T02:07:09;3.65;;;2.22;;
75071;SDS011;63651;55.728;38.022;2023-02-28T02:17:52;3.17;;;2.30;;
75071;SDS011;63651;55.728;38.022;2023-02-28T02:34:07;3.60;;;2.45;;
75071;SDS011;63651;55.728;38.022;2023-02-28T02:45:01;4.50;;;3.60;;
75071;SDS011;63651;55.728;38.022;2023-02-28T02:50:08;2.78;;;2.10;;
75071;SDS011;63651;55.728;38.022;2023-02-28T02:55:14;2.97;;;2.00;;
75071;SDS011;63651;55.728;38.022;2023-02-28T03:00:19;3.40;;;2.22;;
75071;SDS011;63651;55.728;38.022;2023-02-28T03:05:26;3.40;;;2.67;;
75071;SDS011;63651;55.728;38.022;2023-02-28T03:15:50;2.67;;;1.83;;
75071;SDS011;63651;55.728;38.022;2023-02-28T03:21:32;3.22;;;2.28;;
75071;SDS011;63651;55.728;38.022;2023-02-28T03:26:45;3.45;;;1.80;;
75071;SDS011;63651;55.728;38.022;2023-02-28T03:32:05;3.15;;;1.75;;
75071;SDS011;63651;55.728;38.022;2023-02-28T03:37:18;2.63;;;2.42;;
75071;SDS011;63651;55.728;38.022;2023-02-28T03:42:29;3.05;;;1.80;;
75071;SDS011;63651;55.728;38.022;2023-02-28T03:47:39;2.47;;;2.10;;
75071;SDS011;63651;55.728;38.022;2023-02-28T03:52:47;2.05;;;1.83;;
75071;SDS011;63651;55.728;38.022;2023-02-28T03:58:04;2.58;;;1.70;;
75071;SDS011;63651;55.728;38.022;2023-02-28T04:03:13;3.10;;;1.92;;
75071;SDS011;63651;55.728;38.022;2023-02-28T04:08:14;3.53;;;2.17;;
75071;SDS011;63651;55.728;38.022;2023-02-28T04:13:15;2.85;;;2.28;;
75071;SDS011;63651;55.728;38.022;2023-02-28T04:18:17;2.22;;;1.88;;
75071;SDS011;63651;55.728;38.022;2023-02-28T04:23:18;3.63;;;1.90;;
75071;SDS011;63651;55.728;38.022;2023-02-28T04:28:19;4.85;;;2.15;;
75071;SDS011;63651;55.728;38.022;2023-02-28T04:33:20;32.58;;;6.90;;
75071;SDS011;63651;55.728;38.022;2023-02-28T04:38:21;38.00;;;7.88;;
75071;SDS011;63651;55.728;38.022;2023-02-28T04:43:22;22.45;;;5.43;;
75071;SDS011;63651;55.728;38.022;2023-02-28T04:48:24;25.85;;;5.88;;
75071;SDS011;63651;55.728;38.022;2023-02-28T04:53:25;17.42;;;4.18;;
75071;SDS011;63651;55.728;38.022;2023-02-28T04:58:29;15.48;;;4.38;;
75071;SDS011;63651;55.728;38.022;2023-02-28T05:03:31;14.25;;;4.53;;
75071;SDS011;63651;55.728;38.022;2023-02-28T05:08:32;15.68;;;3.90;;
75071;SDS011;63651;55.728;38.022;2023-02-28T05:13:33;11.07;;;3.40;;
75071;SDS011;63651;55.728;38.022;2023-02-28T05:18:37;7.00;;;2.92;;
75071;SDS011;63651;55.728;38.022;2023-02-28T05:23:38;11.40;;;2.88;;
75071;SDS011;63651;55.728;38.022;2023-02-28T05:28:40;9.82;;;2.75;;
75071;SDS011;63651;55.728;38.022;2023-02-28T05:33:41;4.95;;;2.20;;
75071;SDS011;63651;55.728;38.022;2023-02-28T05:38:42;8.02;;;3.20;;
75071;SDS011;63651;55.728;38.022;2023-02-28T05:43:43;6.32;;;2.08;;
75071;SDS011;63651;55.728;38.022;2023-02-28T05:48:46;4.13;;;1.58;;
75071;SDS011;63651;55.728;38.022;2023-02-28T05:53:48;6.10;;;1.95;;
75071;SDS011;63651;55.728;38.022;2023-02-28T05:58:50;5.25;;;1.83;;
75071;SDS011;63651;55.728;38.022;2023-02-28T06:03:51;4.95;;;1.75;;
75071;SDS011;63651;55.728;38.022;2023-02-28T06:08:52;4.72;;;1.70;;
75071;SDS011;63651;55.728;38.022;2023-02-28T06:13:54;3.70;;;1.60;;
75071;SDS011;63651;55.728;38.022;2023-02-28T06:18:59;5.32;;;2.08;;
75071;SDS011;63651;55.728;38.022;2023-02-28T06:24:03;4.65;;;1.92;;
75071;SDS011;63651;55.728;38.022;2023-02-28T06:29:04;3.30;;;1.60;;
75071;SDS011;63651;55.728;38.022;2023-02-28T06:34:05;3.45;;;1.52;;
75071;SDS011;63651;55.728;38.022;2023-02-28T06:39:07;3.38;;;1.33;;
75071;SDS011;63651;55.728;38.022;2023-02-28T06:44:11;3.08;;;1.55;;
75071;SDS011;63651;55.728;38.022;2023-02-28T06:49:14;2.33;;;1.38;;
75071;SDS011;63651;55.728;38.022;2023-02-28T06:54:16;2.50;;;1.50;;
75071;SDS011;63651;55.728;38.022;2023-02-28T06:59:17;1.83;;;1.48;;
75071;SDS011;63651;55.728;38.022;2023-02-28T07:04:18;3.22;;;1.77;;
75071;SDS011;63651;55.728;38.022;2023-02-28T07:09:19;2.92;;;1.70;;
75071;SDS011;63651;55.728;38.022;2023-02-28T07:14:20;1.75;;;1.33;;
75071;SDS011;63651;55.728;38.022;2023-02-28T07:19:22;1.98;;;1.20;;
75071;SDS011;63651;55.728;38.022;2023-02-28T07:24:23;2.75;;;1.63;;
75071;SDS011;63651;55.728;38.022;2023-02-28T07:29:28;2.53;;;1.67;;
75071;SDS011;63651;55.728;38.022;2023-02-28T07:34:30;4.22;;;1.63;;
75071;SDS011;63651;55.728;38.022;2023-02-28T07:39:31;3.55;;;1.90;;
75071;SDS011;63651;55.728;38.022;2023-02-28T07:44:32;2.60;;;1.42;;
75071;SDS011;63651;55.728;38.022;2023-02-28T07:49:34;2.30;;;1.40;;
75071;SDS011;63651;55.728;38.022;2023-02-28T07:54:36;2.00;;;1.33;;
75071;SDS011;63651;55.728;38.022;2023-02-28T07:59:37;3.03;;;2.13;;
75071;SDS011;63651;55.728;38.022;2023-02-28T08:04:38;3.40;;;1.88;;
75071;SDS011;63651;55.728;38.022;2023-02-28T08:09:39;2.05;;;1.27;;
75071;SDS011;63651;55.728;38.022;2023-02-28T08:14:41;2.58;;;1.38;;
75071;SDS011;63651;55.728;38.022;2023-02-28T08:19:44;4.05;;;1.80;;
75071;SDS011;63651;55.728;38.022;2023-02-28T08:24:48;2.00;;;1.30;;
75071;SDS011;63651;55.728;38.022;2023-02-28T08:29:49;2.65;;;1.52;;
75071;SDS011;63651;55.728;38.022;2023-02-28T08:34:50;2.55;;;1.73;;
75071;SDS011;63651;55.728;38.022;2023-02-28T08:39:51;2.33;;;1.50;;
75071;SDS011;63651;55.728;38.022;2023-02-28T08:44:53;2.20;;;1.40;;
75071;SDS011;63651;55.728;38.022;2023-02-28T08:49:54;3.78;;;2.00;;
75071;SDS011;63651;55.728;38.022;2023-02-28T08:54:55;2.65;;;1.63;;
75071;SDS011;63651;55.728;38.022;2023-02-28T08:59:56;3.83;;;2.17;;
75071;SDS011;63651;55.728;38.022;2023-02-28T09:04:57;4.18;;;2.10;;
75071;SDS011;63651;55.728;38.022;2023-02-28T09:09:59;2.97;;;1.95;;
75071;SDS011;63651;55.728;38.022;2023-02-28T09:15:00;2.72;;;1.95;;
75071;SDS011;63651;55.728;38.022;2023-02-28T09:20:01;2.97;;;1.80;;
75071;SDS011;63651;55.728;38.022;2023-02-28T09:25:02;3.17;;;1.60;;
75071;SDS011;63651;55.728;38.022;2023-02-28T09:30:03;2.17;;;1.60;;
75071;SDS011;63651;55.728;38.022;2023-02-28T09:35:05;2.63;;;1.55;;
75071;SDS011;63651;55.728;38.022;2023-02-28T09:40:07;2.70;;;1.88;;
75071;SDS011;63651;55.728;38.022;2023-02-28T09:45:22;2.20;;;1.70;;
75071;SDS011;63651;55.728;38.022;2023-02-28T09:50:32;2.38;;;1.55;;
75071;SDS011;63651;55.728;38.022;2023-02-28T09:55:44;3.50;;;1.85;;
75071;SDS011;63651;55.728;38.022;2023-02-28T10:00:54;2.47;;;2.00;;
75071;SDS011;63651;55.728;38.022;2023-02-28T10:11:21;2.50;;;1.77;;
75071;SDS011;63651;55.728;38.022;2023-02-28T10:16:27;3.75;;;2.05;;
75071;SDS011;63651;55.728;38.022;2023-02-28T10:26:47;3.15;;;1.88;;
75071;SDS011;63651;55.728;38.022;2023-02-28T10:31:49;3.60;;;1.63;;
75071;SDS011;63651;55.728;38.022;2023-02-28T10:36:50;2.03;;;1.48;;
75071;SDS011;63651;55.728;38.022;2023-02-28T10:41:52;1.80;;;1.30;;
75071;SDS011;63651;55.728;38.022;2023-02-28T10:46:53;2.67;;;1.40;;
75071;SDS011;63651;55.728;38.022;2023-02-28T10:51:56;2.78;;;1.88;;
75071;SDS011;63651;55.728;38.022;2023-02-28T11:02:34;2.50;;;1.80;;
75071;SDS011;63651;55.728;38.022;2023-02-28T11:07:43;2.85;;;1.75;;
75071;SDS011;63651;55.728;38.022;2023-02-28T11:12:54;1.90;;;1.70;;
75071;SDS011;63651;55.728;38.022;2023-02-28T11:23:02;2.92;;;1.60;;
75071;SDS011;63651;55.728;38.022;2023-02-28T11:28:06;3.10;;;1.90;;
75071;SDS011;63651;55.728;38.022;2023-02-28T11:33:53;1.75;;;1.30;;
75071;SDS011;63651;55.728;38.022;2023-02-28T11:38:58;3.13;;;2.17;;
75071;SDS011;63651;55.728;38.022;2023-02-28T12:21:31;1.80;;;1.27;;
75071;SDS011;63651;55.728;38.022;2023-02-28T12:32:33;3.05;;;2.47;;
75071;SDS011;63651;55.728;38.022;2023-02-28T12:37:28;2.88;;;2.33;;
75071;SDS011;63651;55.728;38.022;2023-02-28T12:42:56;3.65;;;1.65;;
75071;SDS011;63651;55.728;38.022;2023-02-28T12:48:03;2.28;;;1.52;;
75071;SDS011;63651;55.728;38.022;2023-02-28T12:53:09;2.40;;;1.52;;
75071;SDS011;63651;55.728;38.022;2023-02-28T12:58:14;2.15;;;1.20;;
75071;SDS011;63651;55.728;38.022;2023-02-28T13:14:03;2.10;;;1.40;;
75071;SDS011;63651;55.728;38.022;2023-02-28T13:19:09;2.70;;;1.38;;
75071;SDS011;63651;55.728;38.022;2023-02-28T13:24:12;2.20;;;1.42;;
75071;SDS011;63651;55.728;38.022;2023-02-28T13:29:42;2.28;;;1.52;;
75071;SDS011;63651;55.728;38.022;2023-02-28T13:39:55;2.28;;;1.73;;
75071;SDS011;63651;55.728;38.022;2023-02-28T13:45:29;2.08;;;1.45;;
75071;SDS011;63651;55.728;38.022;2023-02-28T13:50:38;1.95;;;1.30;;
75071;SDS011;63651;55.728;38.022;2023-02-28T14:06:24;2.60;;;1.40;;
75071;SDS011;63651;55.728;38.022;2023-02-28T14:11:29;1.95;;;1.33;;
75071;SDS011;63651;55.728;38.022;2023-02-28T14:21:45;2.13;;;1.50;;
75071;SDS011;63651;55.728;38.022;2023-02-28T14:37:47;2.20;;;1.52;;
75071;SDS011;63651;55.728;38.022;2023-02-28T14:42:55;2.90;;;1.52;;
75071;SDS011;63651;55.728;38.022;2023-02-28T14:48:09;2.53;;;1.42;;
75071;SDS011;63651;55.728;38.022;2023-02-28T14:53:14;2.78;;;1.33;;
75071;SDS011;63651;55.728;38.022;2023-02-28T15:08:35;5.05;;;1.42;;
75071;SDS011;63651;55.728;38.022;2023-02-28T15:13:47;3.33;;;1.50;;
75071;SDS011;63651;55.728;38.022;2023-02-28T15:18:57;2.90;;;1.30;;
75071;SDS011;63651;55.728;38.022;2023-02-28T15:24:08;3.10;;;1.33;;
75071;SDS011;63651;55.728;38.022;2023-02-28T15:29:14;6.93;;;1.63;;
75071;SDS011;63651;55.728;38.022;2023-02-28T15:34:20;2.40;;;1.25;;
75071;SDS011;63651;55.728;38.022;2023-02-28T15:39:30;2.88;;;1.58;;
75071;SDS011;63651;55.728;38.022;2023-02-28T15:44:41;2.55;;;1.33;;
75071;SDS011;63651;55.728;38.022;2023-02-28T15:49:56;2.13;;;1.65;;
75071;SDS011;63651;55.728;38.022;2023-02-28T15:55:10;4.15;;;2.33;;
75071;SDS011;63651;55.728;38.022;2023-02-28T16:00:23;2.55;;;1.65;;
75071;SDS011;63651;55.728;38.022;2023-02-28T16:05:27;2.60;;;1.50;;
75071;SDS011;63651;55.728;38.022;2023-02-28T16:10:32;2.25;;;1.75;;
75071;SDS011;63651;55.728;38.022;2023-02-28T16:15:35;2.40;;;1.38;;
75071;SDS011;63651;55.728;38.022;2023-02-28T16:20:42;9.45;;;5.90;;
75071;SDS011;63651;55.728;38.022;2023-02-28T16:25:45;6.05;;;4.47;;
75071;SDS011;63651;55.728;38.022;2023-02-28T16:30:46;3.65;;;2.78;;
75071;SDS011;63651;55.728;38.022;2023-02-28T16:35:48;2.45;;;2.00;;
75071;SDS011;63651;55.728;38.022;2023-02-28T16:40:50;2.17;;;1.63;;
75071;SDS011;63651;55.728;38.022;2023-02-28T16:45:58;2.05;;;1.60;;
75071;SDS011;63651;55.728;38.022;2023-02-28T16:50:59;1.67;;;1.33;;
75071;SDS011;63651;55.728;38.022;2023-02-28T16:56:00;1.88;;;1.20;;
75071;SDS011;63651;55.728;38.022;2023-02-28T17:01:02;2.70;;;1.50;;
75071;SDS011;63651;55.728;38.022;2023-02-28T17:06:04;2.78;;;1.42;;
75071;SDS011;63651;55.728;38.022;2023-02-28T17:11:05;1.92;;;1.50;;
75071;SDS011;63651;55.728;38.022;2023-02-28T17:16:09;2.45;;;1.20;;
75071;SDS011;63651;55.728;38.022;2023-02-28T17:21:28;2.08;;;1.00;;
75071;SDS011;63651;55.728;38.022;2023-02-28T17:26:30;2.22;;;1.77;;
75071;SDS011;63651;55.728;38.022;2023-02-28T17:31:31;2.85;;;1.80;;
75071;SDS011;63651;55.728;38.022;2023-02-28T17:36:33;3.42;;;1.80;;
75071;SDS011;63651;55.728;38.022;2023-02-28T17:41:35;2.42;;;1.20;;
75071;SDS011;63651;55.728;38.022;2023-02-28T17:46:36;1.40;;;0.73;;
75071;SDS011;63651;55.728;38.022;2023-02-28T17:51:37;1.10;;;0.60;;
75071;SDS011;63651;55.728;38.022;2023-02-28T17:56:39;1.05;;;0.57;;
75071;SDS011;63651;55.728;38.022;2023-02-28T18:01:40;1.42;;;0.52;;
75071;SDS011;63651;55.728;38.022;2023-02-28T18:06:42;0.95;;;0.50;;
75071;SDS011;63651;55.728;38.022;2023-02-28T18:11:48;0.73;;;0.40;;
75071;SDS011;63651;55.728;38.022;2023-02-28T18:16:53;1.00;;;0.57;;
75071;SDS011;63651;55.728;38.022;2023-02-28T18:21:55;2.47;;;0.63;;
75071;SDS011;63651;55.728;38.022;2023-02-28T18:26:56;1.40;;;0.50;;
75071;SDS011;63651;55.728;38.022;2023-02-28T18:31:58;1.17;;;0.40;;
75071;SDS011;63651;55.728;38.022;2023-02-28T18:37:01;0.68;;;0.32;;
75071;SDS011;63651;55.728;38.022;2023-02-28T18:42:03;2.00;;;0.52;;
75071;SDS011;63651;55.728;38.022;2023-02-28T18:47:05;5.50;;;1.90;;
75071;SDS011;63651;55.728;38.022;2023-02-28T18:52:06;5.00;;;2.10;;
75071;SDS011;63651;55.728;38.022;2023-02-28T18:57:07;2.95;;;1.65;;
75071;SDS011;63651;55.728;38.022;2023-02-28T19:02:09;1.70;;;0.70;;
75071;SDS011;63651;55.728;38.022;2023-02-28T19:07:10;2.65;;;0.85;;
75071;SDS011;63651;55.728;38.022;2023-02-28T19:12:11;1.40;;;0.63;;
75071;SDS011;63651;55.728;38.022;2023-02-28T19:17:12;2.40;;;0.40;;
75071;SDS011;63651;55.728;38.022;2023-02-28T19:22:16;1.38;;;0.63;;
75071;SDS011;63651;55.728;38.022;2023-02-28T19:27:18;0.70;;;0.17;;
75071;SDS011;63651;55.728;38.022;2023-02-28T19:32:19;1.05;;;0.50;;
75071;SDS011;63651;55.728;38.022;2023-02-28T19:37:21;1.20;;;0.22;;
75071;SDS011;63651;55.728;38.022;2023-02-28T19:42:25;1.25;;;0.30;;
75071;SDS011;63651;55.728;38.022;2023-02-28T19:47:32;1.38;;;0.68;;
75071;SDS011;63651;55.728;38.022;2023-02-28T19:52:33;0.75;;;0.20;;
75071;SDS011;63651;55.728;38.022;2023-02-28T19:57:34;1.15;;;0.30;;
75071;SDS011;63651;55.728;38.022;2023-02-28T20:02:35;1.25;;;0.20;;
75071;SDS011;63651;55.728;38.022;2023-02-28T20:07:37;1.27;;;0.55;;
75071;SDS011;63651;55.728;38.022;2023-02-28T20:12:39;1.10;;;0.30;;
75071;SDS011;63651;55.728;38.022;2023-02-28T20:17:40;1.05;;;0.38;;
75071;SDS011;63651;55.728;38.022;2023-02-28T20:22:42;1.23;;;0.30;;
75071;SDS011;63651;55.728;38.022;2023-02-28T20:27:43;0.90;;;0.17;;
75071;SDS011;63651;55.728;38.022;2023-02-28T20:32:44;0.63;;;0.20;;
75071;SDS011;63651;55.728;38.022;2023-02-28T20:37:45;1.42;;;0.20;;
75071;SDS011;63651;55.728;38.022;2023-02-28T20:42:46;0.95;;;0.20;;
75071;SDS011;63651;55.728;38.022;2023-02-28T20:47:47;0.93;;;0.22;;
75071;SDS011;63651;55.728;38.022;2023-02-28T20:52:50;2.60;;;0.30;;
75071;SDS011;63651;55.728;38.022;2023-02-28T20:57:51;0.30;;;0.20;;
75071;SDS011;63651;55.728;38.022;2023-02-28T21:02:53;0.73;;;0.10;;
75071;SDS011;63651;55.728;38.022;2023-02-28T21:07:54;0.88;;;0.20;;
75071;SDS011;63651;55.728;38.022;2023-02-28T21:12:55;0.73;;;0.10;;
75071;SDS011;63651;55.728;38.022;2023-02-28T21:17:57;1.50;;;0.22;;
75071;SDS011;63651;55.728;38.022;2023-02-28T21:22:58;0.65;;;0.05;;
75071;SDS011;63651;55.728;38.022;2023-02-28T21:27:59;0.95;;;0.30;;
75071;SDS011;63651;55.728;38.022;2023-02-28T21:33:00;1.23;;;0.13;;
75071;SDS011;63651;55.728;38.022;2023-02-28T21:38:02;1.55;;;0.30;;
75071;SDS011;63651;55.728;38.022;2023-02-28T21:43:03;1.05;;;0.20;;
75071;SDS011;63651;55.728;38.022;2023-02-28T21:48:04;2.38;;;0.45;;
75071;SDS011;63651;55.728;38.022;2023-02-28T21:53:06;0.68;;;0.13;;
75071;SDS011;63651;55.728;38.022;2023-02-28T21:58:07;0.95;;;0.20;;
75071;SDS011;63651;55.728;38.022;2023-02-28T22:03:08;0.88;;;0.08;;
75071;SDS011;63651;55.728;38.022;2023-02-28T22:08:09;1.75;;;0.30;;
75071;SDS011;63651;55.728;38.022;2023-02-28T22:13:10;1.00;;;0.22;;
75071;SDS011;63651;55.728;38.022;2023-02-28T22:18:11;0.98;;;0.25;;
75071;SDS011;63651;55.728;38.022;2023-02-28T22:23:12;1.52;;;0.25;;
75071;SDS011;63651;55.728;38.022;2023-02-28T22:28:13;1.33;;;0.40;;
75071;SDS011;63651;55.728;38.022;2023-02-28T22:33:14;1.45;;;0.22;;
75071;SDS011;63651;55.728;38.022;2023-02-28T22:38:15;1.58;;;0.20;;
75071;SDS011;63651;55.728;38.022;2023-02-28T22:43:17;1.48;;;0.45;;
75071;SDS011;63651;55.728;38.022;2023-02-28T22:48:18;1.65;;;0.10;;
75071;SDS011;63651;55.728;38.022;2023-02-28T22:53:19;1.88;;;0.20;;
75071;SDS011;63651;55.728;38.022;2023-02-28T22:58:20;1.33;;;0.40;;
75071;SDS011;63651;55.728;38.022;2023-02-28T23:03:22;0.80;;;0.20;;
75071;SDS011;63651;55.728;38.022;2023-02-28T23:08:25;1.85;;;0.20;;
75071;SDS011;63651;55.728;38.022;2023-02-28T23:13:26;0.45;;;0.10;;
75071;SDS011;63651;55.728;38.022;2023-02-28T23:18:27;0.73;;;0.25;;
75071;SDS011;63651;55.728;38.022;2023-02-28T23:23:28;0.93;;;0.10;;
75071;SDS011;63651;55.728;38.022;2023-02-28T23:28:29;1.55;;;0.17;;
75071;SDS011;63651;55.728;38.022;2023-02-28T23:33:31;2.38;;;0.60;;
75071;SDS011;63651;55.728;38.022;2023-02-28T23:38:32;0.57;;;0.28;;
75071;SDS011;63651;55.728;38.022;2023-02-28T23:43:34;2.90;;;1.15;;
75071;SDS011;63651;55.728;38.022;2023-02-28T23:48:36;1.60;;;0.60;;
75071;SDS011;63651;55.728;38.022;2023-02-28T23:53:39;2.90;;;0.75;;
75071;SDS011;63651;55.728;38.022;2023-02-28T23:58:42;1.58;;;0.98;;
